createdAt,value
2022-10-05T00:00:49.875Z,10.09
2022-10-05T00:03:39.135Z,10.10
2022-10-05T00:06:10.241Z,10.10
2022-10-05T00:08:38.461Z,10.11
2022-10-05T00:11:13.506Z,10.12
2022-10-05T00:13:41.698Z,10.15
2022-10-05T00:16:15.147Z,10.16
2022-10-05T00:18:47.178Z,10.17
2022-10-05T00:21:18.433Z,10.17
2022-10-05T00:23:46.640Z,10.18
2022-10-05T00:26:21.689Z,10.18
2022-10-05T00:28:50.403Z,10.19
2022-10-05T00:31:30.827Z,10.21
2022-10-05T00:33:59.228Z,10.22
2022-10-05T00:36:27.301Z,10.24
2022-10-05T00:38:55.537Z,10.25
2022-10-05T00:41:23.415Z,10.26
2022-10-05T00:44:01.550Z,10.26
2022-10-05T00:46:29.408Z,10.26
2022-10-05T00:49:34.965Z,10.28
2022-10-05T00:52:20.502Z,10.28
2022-10-05T00:55:08.052Z,10.28
2022-10-05T00:57:57.334Z,10.29
2022-10-05T01:00:27.153Z,10.29
2022-10-05T01:03:07.215Z,10.28
2022-10-05T01:05:44.593Z,10.30
2022-10-05T01:08:46.258Z,10.32
2022-10-05T01:11:20.428Z,10.33
2022-10-05T01:14:03.894Z,10.36
2022-10-05T01:16:41.435Z,10.37
2022-10-05T01:19:40.431Z,10.37
2022-10-05T01:22:59.650Z,10.38
2022-10-05T01:25:44.717Z,10.37
2022-10-05T01:28:21.639Z,10.35
2022-10-05T01:31:01.851Z,10.33
2022-10-05T01:33:57.789Z,10.32
2022-10-05T01:36:43.967Z,10.33
2022-10-05T01:39:24.024Z,10.33
2022-10-05T01:42:10.293Z,10.33
2022-10-05T01:44:42.451Z,10.36
2022-10-05T01:47:20.421Z,10.37
2022-10-05T01:50:04.839Z,10.35
2022-10-05T01:53:12.046Z,10.34
2022-10-05T01:56:11.433Z,10.33
2022-10-05T01:59:03.212Z,10.33
2022-10-05T02:01:54.995Z,10.32
2022-10-05T02:04:59.897Z,10.31
2022-10-05T02:07:23.547Z,10.32
2022-10-05T02:09:59.714Z,10.33
2022-10-05T02:12:32.912Z,10.33
2022-10-05T02:15:15.926Z,10.33
2022-10-05T02:17:51.239Z,10.35
2022-10-05T02:20:25.965Z,10.36
2022-10-05T02:22:58.947Z,10.37
2022-10-05T02:25:35.075Z,10.37
2022-10-05T02:28:12.609Z,10.37
2022-10-05T02:30:55.760Z,10.37
2022-10-05T02:33:24.369Z,10.36
2022-10-05T02:35:54.603Z,10.36
2022-10-05T02:38:41.403Z,10.36
2022-10-05T02:41:24.625Z,10.36
2022-10-05T02:44:20.137Z,10.36
2022-10-05T02:46:58.372Z,10.35
2022-10-05T02:49:54.477Z,10.36
2022-10-05T02:52:29.830Z,10.37
2022-10-05T02:55:15.603Z,10.37
2022-10-05T02:57:57.309Z,10.37
2022-10-05T03:00:33.655Z,10.36
2022-10-05T03:03:11.557Z,10.35
2022-10-05T03:06:00.720Z,10.33
2022-10-05T03:08:51.616Z,10.32
2022-10-05T03:11:45.714Z,10.31
2022-10-05T03:14:20.730Z,10.31
2022-10-05T03:17:20.496Z,10.30
2022-10-05T03:20:28.272Z,10.28
2022-10-05T03:23:02.720Z,10.24
2022-10-05T03:25:44.059Z,10.20
2022-10-05T03:28:56.816Z,10.17
2022-10-05T03:31:43.725Z,10.14
2022-10-05T03:34:14.729Z,10.12
2022-10-05T03:36:51.512Z,10.10
2022-10-05T03:39:31.149Z,10.11
2022-10-05T03:42:24.203Z,10.11
2022-10-05T03:45:03.449Z,10.11
2022-10-05T03:47:49.423Z,10.10
2022-10-05T03:50:56.406Z,10.10
2022-10-05T03:53:35.456Z,10.10
2022-10-05T03:56:03.667Z,10.10
2022-10-05T03:58:41.329Z,10.09
2022-10-05T04:01:15.963Z,10.11
2022-10-05T04:03:48.405Z,10.11
2022-10-05T04:06:18.960Z,10.11
2022-10-05T04:09:06.044Z,10.10
2022-10-05T04:11:40.715Z,10.10
2022-10-05T04:14:30.220Z,10.10
2022-10-05T04:17:03.228Z,10.09
2022-10-05T04:19:46.939Z,10.09
2022-10-05T04:22:20.717Z,10.09
2022-10-05T04:24:58.781Z,10.11
2022-10-05T04:27:51.219Z,10.12
2022-10-05T04:30:20.621Z,10.12
2022-10-05T04:33:00.874Z,10.12
2022-10-05T04:35:42.565Z,10.10
2022-10-05T04:38:47.851Z,10.09
2022-10-05T04:41:41.361Z,10.08
2022-10-05T04:44:48.434Z,10.08
2022-10-05T04:48:02.510Z,10.09
2022-10-05T04:51:06.520Z,10.09
2022-10-05T04:53:38.395Z,10.07
2022-10-05T04:56:11.606Z,10.06
2022-10-05T04:58:43.179Z,10.05
2022-10-05T05:01:32.493Z,10.04
2022-10-05T05:04:24.925Z,10.03
2022-10-05T05:07:22.496Z,10.02
2022-10-05T05:10:19.854Z,10.03
2022-10-05T05:13:21.986Z,10.05
2022-10-05T05:16:10.777Z,10.07
2022-10-05T05:18:58.407Z,10.09
2022-10-05T05:21:54.398Z,10.09
2022-10-05T05:24:47.043Z,10.08
2022-10-05T05:27:27.349Z,10.06
2022-10-05T05:30:13.641Z,10.06
2022-10-05T05:33:03.312Z,10.07
2022-10-05T05:36:05.311Z,10.08
2022-10-05T05:39:01.106Z,10.10
2022-10-05T05:41:39.493Z,10.09
2022-10-05T05:44:24.565Z,10.09
2022-10-05T05:47:04.758Z,10.10
2022-10-05T05:50:10.491Z,10.11
2022-10-05T05:52:49.625Z,10.12
2022-10-05T05:55:30.392Z,10.15
2022-10-05T05:58:21.066Z,10.18
2022-10-05T06:01:04.531Z,10.21
2022-10-05T06:04:08.941Z,10.24
2022-10-05T06:06:44.799Z,10.27
2022-10-05T06:09:22.695Z,10.30
2022-10-05T06:12:24.764Z,10.34
2022-10-05T06:15:00.783Z,10.38
2022-10-05T06:17:37.899Z,10.41
2022-10-05T06:20:17.134Z,10.43
2022-10-05T06:22:47.351Z,10.45
2022-10-05T06:25:56.925Z,10.46
2022-10-05T06:28:27.408Z,10.46
2022-10-05T06:31:05.324Z,10.48
2022-10-05T06:33:53.930Z,10.49
2022-10-05T06:36:28.588Z,10.51
2022-10-05T06:38:59.130Z,10.55
2022-10-05T06:41:48.531Z,10.59
2022-10-05T06:44:55.278Z,10.67
2022-10-05T06:47:49.127Z,10.75
2022-10-05T06:50:36.579Z,10.85
2022-10-05T06:53:39.365Z,10.95
2022-10-05T06:56:12.963Z,11.06
2022-10-05T06:58:50.942Z,11.17
2022-10-05T07:01:37.455Z,11.29
2022-10-05T07:04:26.020Z,11.37
2022-10-05T07:07:03.105Z,11.42
2022-10-05T07:09:49.394Z,11.45
2022-10-05T07:12:41.667Z,11.50
2022-10-05T07:15:19.687Z,11.55
2022-10-05T07:18:09.121Z,11.63
2022-10-05T07:20:53.564Z,11.73
2022-10-05T07:23:52.781Z,11.81
2022-10-05T07:26:21.041Z,11.94
2022-10-05T07:29:08.585Z,12.06
2022-10-05T07:31:53.554Z,12.19
2022-10-05T07:34:36.365Z,12.34
2022-10-05T07:37:44.511Z,12.45
2022-10-05T07:40:19.807Z,12.56
2022-10-05T07:43:14.012Z,12.64
2022-10-05T07:45:45.459Z,12.71
2022-10-05T07:48:35.825Z,12.78
2022-10-05T07:51:18.003Z,12.87
2022-10-05T07:54:06.603Z,12.99
2022-10-05T07:56:43.944Z,13.12
2022-10-05T07:59:39.074Z,13.22
2022-10-05T08:02:23.085Z,13.33
2022-10-05T08:04:59.911Z,13.40
2022-10-05T08:07:32.973Z,13.47
2022-10-05T08:10:22.972Z,13.52
2022-10-05T08:12:54.923Z,13.58
2022-10-05T08:15:31.211Z,13.59
2022-10-05T08:18:12.242Z,13.59
2022-10-05T08:20:57.124Z,13.61
2022-10-05T08:23:32.116Z,13.62
2022-10-05T08:26:12.007Z,13.62
2022-10-05T08:28:43.995Z,13.64
2022-10-05T08:31:25.581Z,13.66
2022-10-05T08:34:26.094Z,13.66
2022-10-05T08:37:19.243Z,13.68
2022-10-05T08:40:11.932Z,13.73
2022-10-05T08:42:55.219Z,13.80
2022-10-05T08:45:32.128Z,13.90
2022-10-05T08:48:18.288Z,13.96
2022-10-05T08:51:23.738Z,14.03
2022-10-05T08:54:20.583Z,14.07
2022-10-05T08:57:16.505Z,14.09
2022-10-05T08:59:47.149Z,14.11
2022-10-05T09:02:45.071Z,14.13
2022-10-05T09:05:29.908Z,14.13
2022-10-05T09:08:09.716Z,14.13
2022-10-05T09:10:37.991Z,14.14
2022-10-05T09:13:18.660Z,14.17
2022-10-05T09:16:28.115Z,14.24
2022-10-05T09:19:22.997Z,14.29
2022-10-05T09:22:12.001Z,14.32
2022-10-05T09:24:57.306Z,14.37
2022-10-05T09:27:36.617Z,14.41
2022-10-05T09:30:35.824Z,14.46
2022-10-05T09:33:31.787Z,14.52
2022-10-05T09:36:18.393Z,14.59
2022-10-05T09:39:23.536Z,14.64
2022-10-05T09:42:21.195Z,14.74
2022-10-05T09:45:23.675Z,14.83
2022-10-05T09:48:26.036Z,14.94
2022-10-05T09:51:06.982Z,15.03
2022-10-05T09:53:53.626Z,15.08
2022-10-05T09:56:43.830Z,15.14
2022-10-05T09:59:47.110Z,15.20
2022-10-05T10:02:16.121Z,15.27
2022-10-05T10:05:20.339Z,15.34
2022-10-05T10:07:55.952Z,15.42
2022-10-05T10:11:05.392Z,15.46
2022-10-05T10:14:06.123Z,15.51
2022-10-05T10:16:58.482Z,15.55
2022-10-05T10:19:49.161Z,15.61
2022-10-05T10:22:25.966Z,15.68
2022-10-05T10:25:12.424Z,15.73
2022-10-05T10:27:54.391Z,15.78
2022-10-05T10:30:46.911Z,15.81
2022-10-05T10:33:15.789Z,15.84
2022-10-05T10:36:33.226Z,15.87
2022-10-05T10:39:12.416Z,15.92
2022-10-05T10:42:04.134Z,15.95
2022-10-05T10:44:37.780Z,15.96
2022-10-05T10:47:40.218Z,15.97
2022-10-05T10:50:20.221Z,15.96
2022-10-05T10:53:25.873Z,15.92
2022-10-05T10:56:28.445Z,15.91
2022-10-05T10:59:08.180Z,15.95
2022-10-05T11:01:40.179Z,15.99
2022-10-05T11:04:39.648Z,16.01
2022-10-05T11:07:16.521Z,16.05
2022-10-05T11:10:21.663Z,16.10
2022-10-05T11:13:17.691Z,16.16
2022-10-05T11:16:12.513Z,16.22
2022-10-05T11:19:10.251Z,16.27
2022-10-05T11:21:45.400Z,16.28
2022-10-05T11:24:42.614Z,16.30
2022-10-05T11:27:34.063Z,16.33
2022-10-05T11:30:16.924Z,16.37
2022-10-05T11:33:35.323Z,16.41
2022-10-05T11:36:03.246Z,16.42
2022-10-05T11:39:02.362Z,16.44
2022-10-05T11:42:07.222Z,16.46
2022-10-05T11:45:19.312Z,16.46
2022-10-05T11:48:16.248Z,16.46
2022-10-05T11:51:08.945Z,16.44
2022-10-05T11:53:59.108Z,16.43
2022-10-05T11:56:39.786Z,16.44
2022-10-05T11:59:26.754Z,16.46
2022-10-05T12:02:04.443Z,16.51
2022-10-05T12:04:53.468Z,16.56
2022-10-05T12:07:41.032Z,16.62
2022-10-05T12:10:40.275Z,16.64
2022-10-05T12:13:19.612Z,16.69
2022-10-05T12:15:57.941Z,16.73
2022-10-05T12:18:31.585Z,16.74
2022-10-05T12:21:15.617Z,16.75
2022-10-05T12:23:59.100Z,16.79
2022-10-05T12:26:47.514Z,16.82
2022-10-05T12:29:32.513Z,16.85
2022-10-05T12:32:19.222Z,16.87
2022-10-05T12:34:50.125Z,16.91
2022-10-05T12:37:46.692Z,16.94
2022-10-05T12:40:17.740Z,16.98
2022-10-05T12:43:32.190Z,17.02
2022-10-05T12:46:06.174Z,17.07
2022-10-05T12:48:47.324Z,17.12
2022-10-05T12:51:40.752Z,17.16
2022-10-05T12:54:36.030Z,17.20
2022-10-05T12:57:22.966Z,17.22
2022-10-05T12:59:59.714Z,17.24
2022-10-05T13:02:33.169Z,17.22
2022-10-05T13:05:10.126Z,17.19
2022-10-05T13:08:13.030Z,17.16
2022-10-05T13:10:45.934Z,17.16
2022-10-05T13:13:25.527Z,17.14
2022-10-05T13:15:58.046Z,17.12
2022-10-05T13:18:39.253Z,17.10
2022-10-05T13:21:16.869Z,17.10
2022-10-05T13:23:57.201Z,17.12
2022-10-05T13:26:35.398Z,17.11
2022-10-05T13:29:24.243Z,17.12
2022-10-05T13:32:13.186Z,17.09
2022-10-05T13:35:02.729Z,17.05
2022-10-05T13:37:52.096Z,17.03
2022-10-05T13:40:45.461Z,17.02
2022-10-05T13:43:48.142Z,17.01
2022-10-05T13:46:51.184Z,16.97
2022-10-05T13:49:29.747Z,16.90
2022-10-05T13:52:25.230Z,16.80
2022-10-05T13:55:05.832Z,16.73
2022-10-05T13:57:45.299Z,16.68
2022-10-05T14:00:26.355Z,16.62
2022-10-05T14:03:01.026Z,16.58
2022-10-05T14:05:31.304Z,16.56
2022-10-05T14:08:02.306Z,16.54
2022-10-05T14:10:40.640Z,16.54
2022-10-05T14:13:27.142Z,16.52
2022-10-05T14:16:13.308Z,16.50
2022-10-05T14:19:05.958Z,16.46
2022-10-05T14:21:49.677Z,16.43
2022-10-05T14:24:44.874Z,16.40
2022-10-05T14:27:31.431Z,16.39
2022-10-05T14:30:03.135Z,16.39
2022-10-05T14:32:43.543Z,16.37
2022-10-05T14:35:13.012Z,16.36
2022-10-05T14:37:50.356Z,16.33
2022-10-05T14:40:23.310Z,16.32
2022-10-05T14:42:51.773Z,16.29
2022-10-05T14:45:22.230Z,16.26
2022-10-05T14:47:50.093Z,16.26
2022-10-05T14:50:21.955Z,16.23
2022-10-05T14:52:59.134Z,16.19
2022-10-05T14:55:46.058Z,16.17
2022-10-05T14:58:25.179Z,16.12
2022-10-05T15:01:14.978Z,16.10
2022-10-05T15:04:11.046Z,16.06
2022-10-05T15:06:45.192Z,16.02
2022-10-05T15:09:31.828Z,15.98
2022-10-05T15:12:02.385Z,15.93
2022-10-05T15:14:33.368Z,15.90
2022-10-05T15:17:17.413Z,15.86
2022-10-05T15:20:00.639Z,15.82
2022-10-05T15:22:31.891Z,15.76
2022-10-05T15:25:23.351Z,15.69
2022-10-05T15:28:11.883Z,15.63
2022-10-05T15:30:47.975Z,15.58
2022-10-05T15:33:40.876Z,15.54
2022-10-05T15:36:19.986Z,15.48
2022-10-05T15:39:02.297Z,15.43
2022-10-05T15:41:35.816Z,15.37
2022-10-05T15:44:23.420Z,15.31
2022-10-05T15:46:58.353Z,15.25
2022-10-05T15:50:00.737Z,15.19
2022-10-05T15:52:31.915Z,15.11
2022-10-05T15:55:23.605Z,15.04
2022-10-05T15:58:04.897Z,14.96
2022-10-05T16:00:40.215Z,14.89
2022-10-05T16:03:47.284Z,14.81
2022-10-05T16:07:08.316Z,14.71
2022-10-05T16:10:04.236Z,14.62
2022-10-05T16:12:37.972Z,14.53
2022-10-05T16:15:16.765Z,14.46
2022-10-05T16:17:52.610Z,14.39
2022-10-05T16:20:27.037Z,14.34
2022-10-05T16:23:35.450Z,14.30
2022-10-05T16:26:21.151Z,14.24
2022-10-05T16:29:13.165Z,14.19
2022-10-05T16:31:44.107Z,14.13
2022-10-05T16:34:49.575Z,14.07
2022-10-05T16:37:23.863Z,14.00
2022-10-05T16:39:58.394Z,13.95
2022-10-05T16:42:51.445Z,13.88
2022-10-05T16:45:45.133Z,13.81
2022-10-05T16:48:28.545Z,13.74
2022-10-05T16:51:08.593Z,13.70
2022-10-05T16:53:45.368Z,13.67
2022-10-05T16:56:21.125Z,13.61
2022-10-05T16:59:37.426Z,13.57
2022-10-05T17:02:42.939Z,13.50
2022-10-05T17:05:42.273Z,13.44
2022-10-05T17:08:30.526Z,13.40
2022-10-05T17:11:06.782Z,13.35
2022-10-05T17:13:55.327Z,13.31
2022-10-05T17:16:40.807Z,13.25
2022-10-05T17:19:33.766Z,13.19
2022-10-05T17:22:29.275Z,13.13
2022-10-05T17:25:08.814Z,13.09
2022-10-05T17:28:15.257Z,13.05
2022-10-05T17:31:08.092Z,13.02
2022-10-05T17:34:14.833Z,12.98
2022-10-05T17:36:53.670Z,12.96
2022-10-05T17:39:54.895Z,12.92
2022-10-05T17:42:32.577Z,12.87
2022-10-05T17:45:14.370Z,12.84
2022-10-05T17:47:55.092Z,12.80
2022-10-05T17:51:08.061Z,12.75
2022-10-05T17:53:56.407Z,12.71
2022-10-05T17:56:24.590Z,12.67
2022-10-05T17:59:01.437Z,12.64
2022-10-05T18:01:32.742Z,12.61
2022-10-05T18:04:12.959Z,12.58
2022-10-05T18:06:48.207Z,12.56
2022-10-05T18:09:22.090Z,12.54
2022-10-05T18:12:08.747Z,12.53
2022-10-05T18:15:07.602Z,12.52
2022-10-05T18:17:46.612Z,12.50
2022-10-05T18:20:26.791Z,12.48
2022-10-05T18:22:55.903Z,12.46
2022-10-05T18:25:41.975Z,12.44
2022-10-05T18:28:30.187Z,12.42
2022-10-05T18:31:21.376Z,12.39
2022-10-05T18:33:57.519Z,12.35
2022-10-05T18:36:44.722Z,12.33
2022-10-05T18:39:35.628Z,12.30
2022-10-05T18:42:41.495Z,12.26
2022-10-05T18:45:46.311Z,12.21
2022-10-05T18:48:45.518Z,12.17
2022-10-05T18:51:28.622Z,12.13
2022-10-05T18:54:14.465Z,12.10
2022-10-05T18:56:49.959Z,12.07
2022-10-05T18:59:46.593Z,12.05
2022-10-05T19:02:32.634Z,12.02
2022-10-05T19:05:07.282Z,11.98
2022-10-05T19:07:49.408Z,11.95
2022-10-05T19:10:28.647Z,11.91
2022-10-05T19:13:14.737Z,11.87
2022-10-05T19:16:18.791Z,11.82
2022-10-05T19:18:56.854Z,11.80
2022-10-05T19:21:43.257Z,11.77
2022-10-05T19:24:23.407Z,11.74
2022-10-05T19:27:19.337Z,11.70
2022-10-05T19:30:14.849Z,11.67
2022-10-05T19:32:53.770Z,11.63
2022-10-05T19:35:43.855Z,11.62
2022-10-05T19:38:15.305Z,11.59
2022-10-05T19:40:49.929Z,11.58
2022-10-05T19:43:39.198Z,11.58
2022-10-05T19:46:07.314Z,11.57
2022-10-05T19:48:44.657Z,11.56
2022-10-05T19:51:25.416Z,11.53
2022-10-05T19:53:56.262Z,11.52
2022-10-05T19:56:26.439Z,11.50
2022-10-05T19:58:57.625Z,11.49
2022-10-05T20:01:31.511Z,11.47
2022-10-05T20:04:00.152Z,11.44
2022-10-05T20:06:39.860Z,11.42
2022-10-05T20:09:22.065Z,11.39
2022-10-05T20:11:55.531Z,11.37
2022-10-05T20:14:57.250Z,11.36
2022-10-05T20:17:51.507Z,11.35
2022-10-05T20:20:30.733Z,11.34
2022-10-05T20:23:21.743Z,11.33
2022-10-05T20:26:10.192Z,11.31
2022-10-05T20:28:38.429Z,11.29
2022-10-05T20:31:08.240Z,11.28
2022-10-05T20:33:36.355Z,11.26
2022-10-05T20:36:04.520Z,11.25
2022-10-05T20:38:40.654Z,11.23
2022-10-05T20:41:09.181Z,11.20
2022-10-05T20:43:39.222Z,11.19
2022-10-05T20:46:07.759Z,11.17
2022-10-05T20:48:40.953Z,11.16
2022-10-05T20:51:08.917Z,11.14
2022-10-05T20:53:51.426Z,11.11
2022-10-05T20:56:20.008Z,11.09
2022-10-05T20:59:16.898Z,11.07
2022-10-05T21:01:48.612Z,11.05
2022-10-05T21:04:21.684Z,11.04
2022-10-05T21:06:49.974Z,11.02
2022-10-05T21:09:19.696Z,11.00
2022-10-05T21:11:54.714Z,10.99
2022-10-05T21:14:23.931Z,10.97
2022-10-05T21:16:52.804Z,10.96
2022-10-05T21:19:20.774Z,10.96
2022-10-05T21:21:49.254Z,10.95
2022-10-05T21:24:17.705Z,10.94
2022-10-05T21:26:45.699Z,10.94
2022-10-05T21:29:13.670Z,10.93
2022-10-05T21:31:42.073Z,10.94
2022-10-05T21:34:10.221Z,10.94
2022-10-05T21:36:38.287Z,10.95
2022-10-05T21:39:06.256Z,10.95
2022-10-05T21:41:34.229Z,10.95
2022-10-05T21:44:02.256Z,10.94
2022-10-05T21:46:30.367Z,10.95
2022-10-05T21:48:58.333Z,10.94
2022-10-05T21:51:27.327Z,10.94
2022-10-05T21:53:58.372Z,10.93
2022-10-05T21:56:31.473Z,10.92
2022-10-05T21:59:01.387Z,10.92
2022-10-05T22:01:29.404Z,10.92
2022-10-05T22:03:57.611Z,10.92
2022-10-05T22:06:25.583Z,10.91
2022-10-05T22:08:53.548Z,10.91
2022-10-05T22:11:21.619Z,10.89
2022-10-05T22:13:51.534Z,10.87
2022-10-05T22:16:23.822Z,10.87
2022-10-05T22:18:53.762Z,10.87
2022-10-05T22:21:22.075Z,10.87
2022-10-05T22:23:50.269Z,10.86
2022-10-05T22:26:21.885Z,10.86
2022-10-05T22:28:55.178Z,10.85
2022-10-05T22:31:23.840Z,10.84
2022-10-05T22:33:52.381Z,10.82
2022-10-05T22:36:20.658Z,10.83
2022-10-05T22:38:48.701Z,10.82
2022-10-05T22:41:18.548Z,10.82
2022-10-05T22:43:51.115Z,10.82
2022-10-05T22:46:20.030Z,10.81
2022-10-05T22:48:48.395Z,10.81
2022-10-05T22:51:16.668Z,10.81
2022-10-05T22:53:44.631Z,10.81
2022-10-05T22:56:13.845Z,10.80
2022-10-05T22:58:43.106Z,10.80
2022-10-05T23:01:14.869Z,10.79
2022-10-05T23:03:43.872Z,10.78
2022-10-05T23:06:18.500Z,10.78
2022-10-05T23:08:47.521Z,10.77
2022-10-05T23:11:19.551Z,10.75
2022-10-05T23:13:48.079Z,10.75
2022-10-05T23:16:19.069Z,10.74
2022-10-05T23:18:52.017Z,10.71
2022-10-05T23:21:21.671Z,10.69
2022-10-05T23:23:51.414Z,10.64
2022-10-05T23:26:22.208Z,10.62
2022-10-05T23:28:50.959Z,10.61
2022-10-05T23:31:21.926Z,10.60
2022-10-05T23:33:50.413Z,10.59
2022-10-05T23:36:20.632Z,10.56
2022-10-05T23:38:48.600Z,10.55
2022-10-05T23:41:17.237Z,10.52
2022-10-05T23:43:45.985Z,10.52
2022-10-05T23:46:14.474Z,10.51
2022-10-05T23:48:42.520Z,10.48
2022-10-05T23:51:12.553Z,10.46
2022-10-05T23:53:40.514Z,10.46
2022-10-05T23:56:08.499Z,10.44
2022-10-05T23:58:36.450Z,10.41
